Time;durP1;ratioP1;P1;durP2;ratioP2;P2;SDS_P1;SDS_P2;PMS_P1;PMS_P2;Temp;Humidity;BMP_temperature;BMP_pressure;BME280_temperature;BME280_humidity;BME280_pressure;Samples;Min_cycle;Max_cycle;Signal;HPM_P1;HPM_P2
2023/08/19 00:01:03;;;;;;;4.70;3.90;;;;;;;22.55;100.00;99986.25;4981512;28;20284;-77
2023/08/19 00:03:29;;;;;;;4.40;4.00;;;;;;;22.54;100.00;99985.41;4981737;28;20197;-77
2023/08/19 00:05:55;;;;;;;5.43;4.03;;;;;;;22.52;100.00;99984.69;4977747;28;20221;-77
2023/08/19 00:08:20;;;;;;;4.63;3.67;;;;;;;22.50;100.00;99983.94;4986092;28;20192;-77
2023/08/19 00:10:46;;;;;;;5.67;4.53;;;;;;;22.48;100.00;99985.81;4987412;28;20221;-77
2023/08/19 00:13:11;;;;;;;4.10;3.60;;;;;;;22.49;100.00;99988.34;4997163;28;20201;-76
2023/08/19 00:15:37;;;;;;;5.57;4.70;;;;;;;22.47;100.00;100000.75;4989803;28;20233;-77
2023/08/19 00:18:02;;;;;;;4.77;4.30;;;;;;;22.43;100.00;99982.59;4985440;28;20197;-77
2023/08/19 00:20:28;;;;;;;4.20;3.80;;;;;;;22.39;100.00;99993.31;4995726;28;20642;-77
2023/08/19 00:22:56;;;;;;;3.93;3.63;;;;;;;22.38;100.00;99990.78;4984999;28;20373;-77
2023/08/19 00:25:21;;;;;;;5.80;4.30;;;;;;;22.36;100.00;99990.88;4984999;28;20211;-76
2023/08/19 00:27:46;;;;;;;5.73;4.00;;;;;;;22.35;100.00;99993.59;4985055;28;20192;-78
2023/08/19 00:30:12;;;;;;;5.40;3.60;;;;;;;22.34;100.00;99991.91;4983593;28;20193;-76
2023/08/19 00:32:37;;;;;;;4.57;4.17;;;;;;;22.30;100.00;99996.53;4986575;28;20227;-76
2023/08/19 00:35:03;;;;;;;4.97;4.10;;;;;;;22.26;100.00;99999.47;4979298;28;20732;-77
2023/08/19 00:37:30;;;;;;;4.37;4.03;;;;;;;22.26;100.00;99997.66;4985997;28;20241;-77
2023/08/19 00:39:56;;;;;;;4.43;3.80;;;;;;;22.25;100.00;99995.97;4985410;28;20200;-78
2023/08/19 00:42:21;;;;;;;5.23;3.50;;;;;;;22.27;100.00;99993.25;4985038;28;20224;-77
2023/08/19 00:44:46;;;;;;;3.50;3.20;;;;;;;22.28;100.00;99998.41;4981146;28;20264;-77
2023/08/19 00:47:12;;;;;;;4.57;3.50;;;;;;;22.28;100.00;99993.16;4997146;28;20204;-77
2023/08/19 00:49:38;;;;;;;3.93;3.60;;;;;;;22.29;100.00;100001.91;4994656;28;20200;-76
2023/08/19 00:52:03;;;;;;;4.67;3.60;;;;;;;22.28;100.00;99998.41;4983269;28;20189;-77
2023/08/19 00:54:29;;;;;;;4.73;3.70;;;;;;;22.27;100.00;99996.72;4984750;28;20785;-77
2023/08/19 00:56:55;;;;;;;4.97;3.70;;;;;;;22.25;100.00;99993.34;4977199;28;20192;-77
2023/08/19 00:59:20;;;;;;;3.60;3.30;;;;;;;22.22;100.00;100002.28;4984001;28;20177;-77
2023/08/19 01:01:46;;;;;;;4.10;3.70;;;;;;;22.20;100.00;100003.34;4979415;28;20205;-77
2023/08/19 01:04:11;;;;;;;4.30;3.80;;;;;;;22.16;100.00;99994.75;4996418;28;20617;-77
2023/08/19 01:06:53;;;;;;;3.60;3.23;;;;;;;22.12;100.00;100003.81;4983976;28;20219;-77
2023/08/19 01:09:37;;;;;;;3.93;3.63;;;;;;;22.08;100.00;99997.03;4984589;28;20247;-76
2023/08/19 01:12:05;;;;;;;4.20;3.67;;;;;;;22.05;100.00;99991.94;4986742;28;20200;-76
2023/08/19 01:14:31;;;;;;;4.23;3.50;;;;;;;22.01;100.00;99993.94;4986013;28;20258;-78
2023/08/19 01:16:59;;;;;;;4.17;3.80;;;;;;;21.98;100.00;99994.13;4979482;28;20221;-78
2023/08/19 01:19:29;;;;;;;4.17;3.73;;;;;;;21.97;100.00;99986.31;4997634;28;20189;-76
2023/08/19 01:22:02;;;;;;;3.70;3.40;;;;;;;21.93;100.00;99980.41;4982938;28;20532;-77
2023/08/19 01:24:37;;;;;;;4.03;3.73;;;;;;;21.90;100.00;99986.69;4986494;28;21089;-76
2023/08/19 01:27:04;;;;;;;5.03;4.00;;;;;;;21.86;100.00;99982.53;4980744;28;20192;-76
2023/08/19 01:29:30;;;;;;;4.50;4.10;;;;;;;21.84;100.00;99986.22;4983444;28;20189;-77
2023/08/19 01:31:55;;;;;;;4.47;3.97;;;;;;;21.81;100.00;99991.66;4998116;28;20244;-76
2023/08/19 01:34:22;;;;;;;7.00;4.80;;;;;;;21.76;100.00;99982.28;4997874;28;20208;-76
2023/08/19 01:36:51;;;;;;;5.87;4.40;;;;;;;21.74;100.00;99989.41;4984949;28;20219;-77
2023/08/19 01:39:19;;;;;;;4.57;4.27;;;;;;;21.74;100.00;99983.28;4980087;28;20192;-76
2023/08/19 01:41:45;;;;;;;4.20;3.80;;;;;;;21.74;100.00;99976.25;4980408;28;20213;-79
2023/08/19 01:44:11;;;;;;;4.17;3.87;;;;;;;21.77;100.00;99972.56;4985299;28;20209;-77
2023/08/19 01:46:36;;;;;;;5.23;4.27;;;;;;;21.78;100.00;99976.91;4984179;28;20184;-77
2023/08/19 01:49:01;;;;;;;3.83;3.47;;;;;;;21.80;100.00;99980.28;4982608;28;20227;-76
2023/08/19 01:51:30;;;;;;;4.67;4.00;;;;;;;21.82;100.00;99982.81;4984495;28;20926;-77
2023/08/19 01:53:55;;;;;;;4.40;4.00;;;;;;;21.83;100.00;99987.16;4983227;28;20276;-76
2023/08/19 01:56:21;;;;;;;6.33;4.10;;;;;;;21.83;100.00;99995.06;4984655;28;20280;-76
2023/08/19 01:58:46;;;;;;;4.53;3.70;;;;;;;21.82;100.00;99996.00;4978960;28;20239;-76
2023/08/19 02:01:13;;;;;;;4.37;3.97;;;;;;;21.81;100.00;99984.63;4990851;28;20213;-76
2023/08/19 02:03:38;;;;;;;4.47;4.07;;;;;;;21.78;100.00;99979.53;4981615;28;20185;-76
2023/08/19 02:06:03;;;;;;;5.80;4.33;;;;;;;21.73;100.00;99986.84;4985103;28;20222;-77
2023/08/19 02:08:29;;;;;;;4.47;3.97;;;;;;;21.69;100.00;99980.94;5004635;28;20272;-75
2023/08/19 02:10:54;;;;;;;4.43;3.73;;;;;;;21.66;100.00;99983.75;5012619;28;20197;-76
2023/08/19 02:13:19;;;;;;;4.77;3.90;;;;;;;21.65;100.00;99994.38;4983587;28;20195;-77
2023/08/19 02:15:45;;;;;;;4.10;3.70;;;;;;;21.61;100.00;100007.72;4981324;28;20232;-77
2023/08/19 02:18:10;;;;;;;4.73;4.33;;;;;;;21.57;100.00;100013.25;4982120;28;20181;-77
2023/08/19 02:20:35;;;;;;;4.70;3.90;;;;;;;21.52;100.00;100005.63;4983218;28;20185;-77
2023/08/19 02:23:01;;;;;;;4.07;3.67;;;;;;;21.47;100.00;100010.31;4981860;28;20205;-78
2023/08/19 02:25:27;;;;;;;5.30;4.10;;;;;;;21.43;100.00;100008.78;4985882;28;20201;-77
2023/08/19 02:27:52;;;;;;;5.73;4.30;;;;;;;21.40;100.00;100011.63;5002834;28;20190;-77
2023/08/19 02:30:17;;;;;;;4.13;3.73;;;;;;;21.35;100.00;100011.03;4985378;28;20842;-77
2023/08/19 02:32:43;;;;;;;4.90;3.87;;;;;;;21.32;100.00;100004.16;4987271;28;20831;-78
2023/08/19 02:35:09;;;;;;;4.23;3.80;;;;;;;21.28;100.00;100008.75;4987319;28;20302;-78
2023/08/19 02:37:35;;;;;;;4.40;4.00;;;;;;;21.26;100.00;100010.63;5002385;28;20748;-77
2023/08/19 02:40:00;;;;;;;4.20;3.90;;;;;;;21.25;100.00;100014.19;4984813;28;20185;-77
2023/08/19 02:42:25;;;;;;;5.07;4.53;;;;;;;21.23;100.00;100012.59;4983751;28;20196;-76
2023/08/19 02:44:51;;;;;;;3.67;3.37;;;;;;;21.23;100.00;100015.22;4984302;28;20201;-76
2023/08/19 02:47:16;;;;;;;4.33;3.77;;;;;;;21.21;100.00;100015.31;4988260;28;20279;-77
2023/08/19 02:49:42;;;;;;;4.47;4.07;;;;;;;21.19;100.00;100025.06;4975243;28;20752;-76
2023/08/19 02:52:07;;;;;;;5.33;4.27;;;;;;;21.17;100.00;100024.31;4983765;28;20276;-76
2023/08/19 02:54:33;;;;;;;4.80;4.40;;;;;;;21.12;100.00;100026.34;4985505;28;20327;-76
2023/08/19 02:56:58;;;;;;;5.03;4.53;;;;;;;21.06;100.00;100024.94;4988453;28;21056;-76
2023/08/19 02:59:23;;;;;;;4.50;4.10;;;;;;;21.01;100.00;100017.31;4999520;28;20557;-77
2023/08/19 03:01:49;;;;;;;5.20;4.00;;;;;;;21.00;100.00;100020.88;4982352;28;20313;-76
2023/08/19 03:04:14;;;;;;;4.60;4.00;;;;;;;21.00;100.00;100017.41;4988496;28;20622;-76
2023/08/19 03:06:40;;;;;;;4.10;3.80;;;;;;;21.00;100.00;100030.56;4987941;28;20191;-77
2023/08/19 03:09:05;;;;;;;4.37;3.70;;;;;;;20.99;100.00;100028.84;4984727;28;20185;-77
2023/08/19 03:11:31;;;;;;;4.30;3.90;;;;;;;20.97;100.00;100034.19;4998935;28;20565;-78
2023/08/19 03:13:56;;;;;;;5.13;3.90;;;;;;;20.97;100.00;100026.28;4982630;28;20684;-76
2023/08/19 03:16:21;;;;;;;4.40;4.10;;;;;;;20.95;100.00;100027.31;4974202;28;20216;-77
2023/08/19 03:18:47;;;;;;;4.87;3.77;;;;;;;20.92;100.00;100033.63;4985622;28;20249;-77
2023/08/19 03:21:12;;;;;;;3.77;3.47;;;;;;;20.89;100.00;100025.91;4984924;28;20701;-76
2023/08/19 03:23:37;;;;;;;5.20;3.97;;;;;;;20.87;100.00;100019.88;4985586;28;20300;-76
2023/08/19 03:26:03;;;;;;;4.07;3.53;;;;;;;20.86;100.00;100026.06;4987229;28;20221;-76
2023/08/19 03:28:28;;;;;;;4.03;3.73;;;;;;;20.84;100.00;100022.66;4983703;28;20188;-77
2023/08/19 03:30:53;;;;;;;4.23;3.80;;;;;;;;;;4987198;28;20640;-76
2023/08/19 03:33:20;;;;;;;4.20;3.80;;;;;;;20.78;100.00;100018.59;4984732;28;20197;-77
2023/08/19 03:35:45;;;;;;;4.70;4.17;;;;;;;20.75;100.00;100010.00;5000824;28;20307;-77
2023/08/19 03:38:12;;;;;;;4.07;3.87;;;;;;;20.71;100.00;100001.47;4987613;28;20640;-75
2023/08/19 03:40:37;;;;;;;4.10;3.80;;;;;;;20.68;100.00;100005.09;4986467;28;20279;-76
2023/08/19 03:43:03;;;;;;;4.63;3.90;;;;;;;20.65;100.00;100007.88;4977599;28;20272;-78
2023/08/19 03:45:30;;;;;;;4.00;3.70;;;;;;;20.64;100.00;100007.97;4983074;28;20242;-77
2023/08/19 03:47:55;;;;;;;4.23;3.93;;;;;;;20.60;100.00;100009.06;5003074;28;20220;-77
2023/08/19 03:50:20;;;;;;;3.93;3.63;;;;;;;20.58;100.00;100011.78;4981406;28;20247;-77
2023/08/19 03:52:46;;;;;;;5.67;4.27;;;;;;;20.55;100.00;100017.22;4985818;28;20178;-76
2023/08/19 03:55:11;;;;;;;4.07;3.60;;;;;;;20.50;100.00;100012.22;4990358;28;20277;-77
2023/08/19 03:57:36;;;;;;;4.17;3.77;;;;;;;20.46;100.00;100015.94;4999931;28;20295;-77
2023/08/19 04:00:02;;;;;;;4.40;4.00;;;;;;;20.42;100.00;100022.28;4985026;28;20201;-77
2023/08/19 04:02:27;;;;;;;4.70;4.30;;;;;;;20.38;100.00;100026.88;4990678;28;20200;-77
2023/08/19 04:05:04;;;;;;;4.57;4.00;;;;;;;20.34;100.00;100020.09;4989782;28;20770;-77
2023/08/19 04:07:30;;;;;;;4.43;4.00;;;;;;;20.31;100.00;100022.91;4991592;28;20214;-78
2023/08/19 04:09:56;;;;;;;4.43;3.97;;;;;;;20.30;100.00;100023.81;4985514;28;20196;-77
2023/08/19 04:12:23;;;;;;;4.20;3.90;;;;;;;20.27;100.00;100029.22;4985160;28;21240;-76
2023/08/19 04:14:48;;;;;;;4.10;3.80;;;;;;;20.25;100.00;100024.06;4984198;28;20780;-77
2023/08/19 04:17:14;;;;;;;4.27;3.87;;;;;;;20.25;100.00;100029.31;5004793;28;20219;-77
2023/08/19 04:19:40;;;;;;;4.13;3.73;;;;;;;20.25;100.00;100031.97;4996154;28;20272;-77
2023/08/19 04:22:05;;;;;;;4.37;3.93;;;;;;;20.26;100.00;100038.03;4985249;28;20416;-77
2023/08/19 04:24:32;;;;;;;6.00;4.43;;;;;;;20.26;100.00;100048.56;4986962;28;20213;-76
2023/08/19 04:26:58;;;;;;;4.50;4.10;;;;;;;20.28;100.00;100046.69;4984407;28;20189;-78
2023/08/19 04:29:23;;;;;;;4.37;3.97;;;;;;;20.29;100.00;100044.91;4991024;28;20203;-78
2023/08/19 04:31:48;;;;;;;4.40;4.00;;;;;;;20.30;100.00;100051.88;4978410;28;20207;-77
2023/08/19 04:34:13;;;;;;;3.97;3.67;;;;;;;20.31;100.00;100059.69;4985645;28;20212;-77
2023/08/19 04:36:39;;;;;;;4.17;3.77;;;;;;;20.32;100.00;100057.88;4987785;28;20212;-78
2023/08/19 04:39:07;;;;;;;4.30;3.90;;;;;;;20.31;100.00;100059.69;4982513;28;20262;-78
2023/08/19 04:41:33;;;;;;;4.57;4.10;;;;;;;20.32;100.00;100055.25;4983016;28;20193;-78
2023/08/19 04:43:59;;;;;;;5.90;4.10;;;;;;;20.33;100.00;100055.19;4999662;28;20204;-78
2023/08/19 04:46:24;;;;;;;4.50;4.03;;;;;;;20.36;100.00;100059.44;4982626;28;20216;-78
2023/08/19 04:48:49;;;;;;;4.57;4.17;;;;;;;20.39;100.00;100059.28;4984744;28;21715;-79
2023/08/19 04:51:14;;;;;;;5.63;4.63;;;;;;;20.41;100.00;100060.03;4983298;28;20200;-80
2023/08/19 04:53:40;;;;;;;7.23;4.40;;;;;;;20.42;100.00;100056.44;4983808;28;20184;-79
2023/08/19 04:56:06;;;;;;;5.03;4.13;;;;;;;20.46;100.00;100072.94;5000377;28;20224;-78
2023/08/19 04:58:32;;;;;;;4.60;4.23;;;;;;;20.50;100.00;100077.94;4983015;28;20227;-79
2023/08/19 05:00:57;;;;;;;6.00;4.03;;;;;;;20.55;100.00;100078.53;4997806;28;20197;-78
2023/08/19 05:03:23;;;;;;;5.67;4.20;;;;;;;20.59;100.00;100084.47;4981820;28;20207;-78
2023/08/19 05:05:50;;;;;;;4.93;4.00;;;;;;;20.64;100.00;100090.34;4999418;28;20235;-79
2023/08/19 05:08:15;;;;;;;5.90;4.50;;;;;;;20.68;100.00;100083.13;4984599;28;20196;-78
2023/08/19 05:10:41;;;;;;;4.57;4.17;;;;;;;20.72;100.00;100082.03;4985927;28;20228;-80
2023/08/19 05:13:06;;;;;;;3.63;3.33;;;;;;;20.77;100.00;100076.56;4984072;28;20523;-79
2023/08/19 05:15:31;;;;;;;4.30;3.90;;;;;;;20.82;100.00;100091.13;4983678;28;20304;-77
2023/08/19 05:17:57;;;;;;;4.27;3.97;;;;;;;20.90;100.00;100095.13;4982839;28;20199;-78
2023/08/19 05:20:22;;;;;;;4.57;3.93;;;;;;;20.96;100.00;100084.25;4988493;28;20204;-79
2023/08/19 05:22:47;;;;;;;3.77;3.47;;;;;;;21.02;100.00;100082.13;4981210;28;20299;-78
2023/08/19 05:25:13;;;;;;;5.43;3.80;;;;;;;21.11;100.00;100085.16;4986298;28;20204;-79
2023/08/19 05:27:38;;;;;;;4.73;4.33;;;;;;;21.23;100.00;100078.38;4985413;28;20195;-78
2023/08/19 05:30:05;;;;;;;4.37;3.97;;;;;;;21.41;100.00;100082.59;5000991;28;20216;-78
2023/08/19 05:32:30;;;;;;;3.97;3.57;;;;;;;21.62;100.00;100083.16;4985442;28;20188;-80
2023/08/19 05:34:56;;;;;;;4.37;3.97;;;;;;;21.88;100.00;100088.66;4993309;28;21069;-78
2023/08/19 05:37:21;;;;;;;4.20;3.90;;;;;;;22.35;100.00;100091.16;4988025;28;20182;-79
2023/08/19 05:39:46;;;;;;;4.13;3.73;;;;;;;22.91;100.00;100095.66;4983256;28;20564;-78
2023/08/19 05:42:12;;;;;;;4.33;3.93;;;;;;;23.48;100.00;100097.25;4999663;28;20984;-78
2023/08/19 05:44:38;;;;;;;3.83;3.30;;;;;;;24.01;100.00;100099.91;4979073;28;20716;-78
2023/08/19 05:47:03;;;;;;;4.70;3.50;;;;;;;24.54;100.00;100101.56;4982299;28;20723;-78
2023/08/19 05:49:29;;;;;;;4.93;3.33;;;;;;;25.03;100.00;100099.03;4998566;28;20216;-78
2023/08/19 05:51:55;;;;;;;3.63;3.27;;;;;;;25.52;100.00;100102.53;4980324;28;20196;-79
2023/08/19 05:54:20;;;;;;;3.83;3.53;;;;;;;25.94;100.00;100108.19;4986792;28;20233;-78
2023/08/19 05:56:45;;;;;;;6.70;3.77;;;;;;;26.38;100.00;100108.38;4986531;28;20209;-78
2023/08/19 05:59:11;;;;;;;5.30;3.45;;;;;;;26.74;100.00;100093.13;5011708;28;20222;-79
2023/08/19 06:01:36;;;;;;;4.50;3.60;;;;;;;27.07;100.00;100104.69;5009379;28;20595;-78
2023/08/19 06:04:02;;;;;;;5.63;3.53;;;;;;;27.42;100.00;100101.91;4982369;28;20697;-78
2023/08/19 06:06:27;;;;;;;3.75;3.40;;;;;;;27.69;100.00;100114.72;4995791;28;20909;-78
2023/08/19 06:08:53;;;;;;;5.68;3.78;;;;;;;27.96;99.00;100116.03;4989021;28;20190;-79
2023/08/19 06:11:18;;;;;;;5.03;4.18;;;;;;;28.17;96.91;100110.69;4987279;28;20200;-78
2023/08/19 06:13:43;;;;;;;6.63;4.10;;;;;;;28.32;95.88;100113.00;4986631;28;20606;-79
2023/08/19 06:16:09;;;;;;;5.05;3.63;;;;;;;28.56;94.50;100110.84;4995907;28;20307;-77
2023/08/19 06:18:34;;;;;;;4.38;3.50;;;;;;;28.81;93.03;100113.19;4988577;28;20290;-77
2023/08/19 06:21:00;;;;;;;3.78;3.47;;;;;;;29.01;93.05;100116.72;4992032;28;20236;-79
2023/08/19 06:23:26;;;;;;;4.25;3.67;;;;;;;29.17;92.02;100122.38;4989694;28;20736;-79
2023/08/19 06:25:52;;;;;;;3.70;3.38;;;;;;;29.41;90.31;100125.63;4989273;28;20604;-78
2023/08/19 06:28:19;;;;;;;4.88;3.97;;;;;;;29.55;89.74;100121.72;4987509;28;20792;-78
2023/08/19 06:30:45;;;;;;;4.10;3.67;;;;;;;29.64;89.48;100121.72;4983018;28;20910;-78
2023/08/19 06:33:12;;;;;;;4.53;3.90;;;;;;;29.71;88.75;100131.78;5006314;28;20376;-79
2023/08/19 06:35:38;;;;;;;4.45;3.97;;;;;;;29.78;88.39;100133.75;4985422;28;20710;-78
2023/08/19 06:38:11;;;;;;;5.00;3.80;;;;;;;29.99;87.57;100135.44;5000153;28;20292;-77
2023/08/19 06:40:37;;;;;;;4.63;3.83;;;;;;;30.29;85.46;100141.53;4987539;28;20656;-78
2023/08/19 06:43:06;;;;;;;5.00;4.32;;;;;;;30.48;86.21;100142.44;4998505;28;20771;-79
2023/08/19 06:45:32;;;;;;;4.90;4.50;;;;;;;30.68;84.92;100138.69;4993875;28;20216;-78
2023/08/19 06:48:01;;;;;;;5.97;4.68;;;;;;;30.92;82.94;100142.66;4990241;28;20181;-78
2023/08/19 06:50:27;;;;;;;5.28;4.75;;;;;;;31.01;82.57;100148.91;4987733;28;20268;-78
2023/08/19 06:52:53;;;;;;;5.28;4.60;;;;;;;31.05;82.70;100161.00;4985724;28;20277;-77
2023/08/19 06:55:18;;;;;;;4.82;4.43;;;;;;;31.12;80.90;100158.53;4987824;28;20991;-79
2023/08/19 06:57:49;;;;;;;6.70;4.45;;;;;;;31.31;78.86;100147.75;4996693;28;20254;-78
2023/08/19 07:00:15;;;;;;;6.18;4.30;;;;;;;31.40;77.53;100150.50;4981832;28;20615;-77
2023/08/19 07:02:41;;;;;;;9.35;4.78;;;;;;;31.52;78.32;100154.63;4988426;28;20340;-78
2023/08/19 07:05:15;;;;;;;5.30;3.90;;;;;;;31.59;78.01;100155.69;4985344;28;20276;-78
2023/08/19 07:07:49;;;;;;;7.00;3.97;;;;;;;31.77;77.46;100154.84;4990691;28;20450;-78
2023/08/19 07:10:20;;;;;;;5.60;3.75;;;;;;;31.95;76.48;100151.31;4986859;28;20181;-77
2023/08/19 07:12:46;;;;;;;4.60;3.78;;;;;;;31.73;76.55;100157.00;4981520;28;20618;-78
2023/08/19 07:15:12;;;;;;;4.80;3.38;;;;;;;31.93;75.66;100163.00;4980008;28;20217;-79
2023/08/19 07:17:46;;;;;;;3.72;3.42;;;;;;;32.12;74.73;100176.34;4983827;28;20325;-79
2023/08/19 07:20:15;;;;;;;4.28;3.30;;;;;;;32.20;73.83;100187.94;5001766;28;20188;-76
2023/08/19 07:22:47;;;;;;;3.60;3.30;;;;;;;32.32;72.97;100185.00;4986116;28;20184;-79
2023/08/19 07:25:13;;;;;;;5.72;3.40;;;;;;;32.07;73.41;100188.34;4991677;28;20219;-79
2023/08/19 07:27:39;;;;;;;3.38;3.03;;;;;;;32.07;74.19;100185.66;4986999;28;20181;-78
2023/08/19 07:30:04;;;;;;;5.65;3.40;;;;;;;32.18;73.32;100187.25;4985768;28;20236;-80
2023/08/19 07:32:35;;;;;;;6.00;3.53;;;;;;;32.04;74.17;100183.31;4988505;28;20280;-79
2023/08/19 07:35:00;;;;;;;3.97;3.40;;;;;;;32.11;73.15;100186.22;4998287;28;20216;-79
2023/08/19 07:37:25;;;;;;;5.13;3.25;;;;;;;32.32;71.45;100190.38;4981870;28;20189;-78
2023/08/19 07:39:53;;;;;;;4.53;3.97;;;;;;;32.47;71.56;100191.47;4986244;28;20193;-78
2023/08/19 07:42:18;;;;;;;4.10;3.70;;;;;;;32.46;73.36;100189.78;4985003;28;20830;-79
2023/08/19 07:44:43;;;;;;;3.45;3.15;;;;;;;32.66;72.60;100189.53;4985317;28;20295;-80
2023/08/19 07:47:09;;;;;;;4.65;3.60;;;;;;;32.63;71.72;100203.25;5000714;28;20232;-78
2023/08/19 07:49:34;;;;;;;4.75;3.53;;;;;;;32.74;72.04;100197.63;4984413;28;20259;-75
2023/08/19 07:51:59;;;;;;;3.75;3.45;;;;;;;32.79;71.66;100191.78;4983038;28;20255;-76
2023/08/19 07:54:25;;;;;;;6.80;3.70;;;;;;;32.92;70.96;100197.56;5003394;28;20208;-80
2023/08/19 07:56:53;;;;;;;4.78;3.42;;;;;;;32.76;70.96;100203.66;4999351;28;20217;-80
2023/08/19 07:59:19;;;;;;;6.15;3.38;;;;;;;32.73;71.05;100204.00;4985780;28;20201;-79
2023/08/19 08:01:44;;;;;;;4.15;3.75;;;;;;;32.87;70.85;100199.06;4988204;28;20197;-80
2023/08/19 08:04:10;;;;;;;5.15;3.55;;;;;;;32.72;71.80;100198.78;4982338;28;20219;-77
2023/08/19 08:06:35;;;;;;;3.72;3.30;;;;;;;32.78;71.08;100192.78;4986181;28;20185;-78
2023/08/19 08:09:01;;;;;;;4.03;3.60;;;;;;;32.78;69.55;100201.66;4983215;28;20219;-78
2023/08/19 08:11:26;;;;;;;3.90;3.53;;;;;;;32.64;71.39;100200.44;4982592;28;20538;-79
2023/08/19 08:13:51;;;;;;;8.85;4.15;;;;;;;32.67;71.20;100202.78;4982864;28;20192;-81
2023/08/19 08:16:17;;;;;;;4.90;4.00;;;;;;;32.58;71.54;100195.72;4975702;28;20630;-76
2023/08/19 08:18:42;;;;;;;5.97;3.80;;;;;;;32.62;71.23;100191.72;4980454;28;20308;-76
2023/08/19 08:21:07;;;;;;;3.97;3.53;;;;;;;32.46;72.87;100203.16;4990621;28;20472;-77
2023/08/19 08:23:33;;;;;;;4.68;3.95;;;;;;;32.15;74.21;100198.25;4989304;28;20216;-76
2023/08/19 08:25:58;;;;;;;4.53;3.63;;;;;;;32.15;73.00;100205.47;4980626;28;20768;-76
2023/08/19 08:28:23;;;;;;;4.30;3.90;;;;;;;32.19;71.76;100196.13;4982931;28;20196;-76
2023/08/19 08:30:48;;;;;;;5.03;4.05;;;;;;;31.87;72.98;100189.56;4978663;28;20193;-76
2023/08/19 08:33:14;;;;;;;5.75;4.45;;;;;;;31.84;72.26;100201.38;4982833;28;20272;-77
2023/08/19 08:35:39;;;;;;;7.28;3.88;;;;;;;31.90;72.55;100199.94;4988090;28;20208;-75
2023/08/19 08:38:04;;;;;;;4.93;4.30;;;;;;;32.02;72.86;100192.50;4984213;28;20189;-76
2023/08/19 08:40:31;;;;;;;4.85;4.38;;;;;;;31.91;73.14;100199.78;4987111;28;20649;-75
2023/08/19 08:42:57;;;;;;;4.80;4.18;;;;;;;31.98;72.72;100199.19;4985472;28;20191;-77
2023/08/19 08:45:25;;;;;;;6.40;4.53;;;;;;;32.19;72.26;100196.97;4977157;28;20853;-78
2023/08/19 08:47:51;;;;;;;5.35;4.45;;;;;;;32.36;72.35;100194.41;4986325;28;20180;-76
2023/08/19 08:50:17;;;;;;;5.20;3.97;;;;;;;32.48;73.04;100192.31;4997617;28;20716;-77
2023/08/19 08:52:42;;;;;;;5.38;4.45;;;;;;;32.56;72.94;100191.53;4983201;28;20196;-77
2023/08/19 08:55:09;;;;;;;5.43;4.60;;;;;;;32.61;72.59;100192.72;4984730;28;20219;-76
2023/08/19 08:57:34;;;;;;;5.18;4.55;;;;;;;32.57;72.37;100193.19;4986590;28;20181;-77
2023/08/19 09:00:00;;;;;;;4.07;3.75;;;;;;;32.60;73.00;100191.03;4982442;28;20200;-76
2023/08/19 09:02:27;;;;;;;6.22;4.60;;;;;;;32.62;72.84;100193.53;4984791;28;20197;-75
2023/08/19 09:04:52;;;;;;;6.32;4.25;;;;;;;32.53;72.56;100188.16;4997223;28;20197;-75
2023/08/19 09:07:31;;;;;;;5.40;4.53;;;;;;;32.23;72.33;100184.94;4998312;28;20825;-75
2023/08/19 09:09:58;;;;;;;6.25;4.20;;;;;;;32.31;72.69;100191.38;4978198;28;20236;-76
2023/08/19 09:12:25;;;;;;;4.50;4.10;;;;;;;32.33;72.75;100187.56;4986049;28;20251;-75
2023/08/19 09:15:01;;;;;;;4.18;3.88;;;;;;;32.32;73.00;100193.06;4985479;28;20633;-75
2023/08/19 09:17:26;;;;;;;4.13;3.75;;;;;;;32.28;72.83;100203.25;4983462;28;21044;-76
2023/08/19 09:19:52;;;;;;;5.68;4.05;;;;;;;32.23;72.89;100200.16;4983183;28;20288;-77
2023/08/19 09:22:17;;;;;;;10.38;4.53;;;;;;;32.21;72.76;100196.81;4990811;28;20193;-76
2023/08/19 09:24:43;;;;;;;7.07;4.25;;;;;;;32.17;73.61;100198.94;4982165;28;22253;-77
2023/08/19 09:27:09;;;;;;;5.60;4.25;;;;;;;32.26;73.94;100201.72;4981061;28;20780;-76
2023/08/19 09:29:35;;;;;;;5.72;5.05;;;;;;;32.53;73.22;100200.69;4976798;28;20189;-76
2023/08/19 09:32:02;;;;;;;7.20;4.97;;;;;;;32.66;73.59;100195.75;4978292;28;20193;-78
2023/08/19 09:34:28;;;;;;;5.25;4.70;;;;;;;32.67;73.08;100200.09;4980848;28;20216;-76
2023/08/19 09:36:55;;;;;;;4.78;4.32;;;;;;;32.91;73.48;100203.06;4978141;28;20221;-77
2023/08/19 09:39:23;;;;;;;4.70;4.30;;;;;;;32.97;72.77;100194.38;4978223;28;20181;-76
2023/08/19 09:41:48;;;;;;;4.60;4.03;;;;;;;33.19;71.47;100194.78;4978156;28;20188;-77
2023/08/19 09:44:14;;;;;;;4.85;4.45;;;;;;;33.22;71.41;100199.81;4978101;28;20636;-76
2023/08/19 09:46:40;;;;;;;4.20;3.90;;;;;;;33.24;71.34;100195.13;4979750;28;20189;-76
2023/08/19 09:49:05;;;;;;;4.25;3.95;;;;;;;33.33;71.00;100194.16;4989033;28;20196;-76
2023/08/19 09:51:31;;;;;;;4.38;4.07;;;;;;;33.48;71.88;100197.03;5000855;28;20749;-76
2023/08/19 09:54:07;;;;;;;4.53;4.13;;;;;;;33.66;72.25;100196.88;4982612;28;20259;-77
2023/08/19 09:56:32;;;;;;;4.38;4.03;;;;;;;33.82;71.76;100187.13;4985208;28;20216;-76
2023/08/19 09:58:57;;;;;;;4.65;4.25;;;;;;;34.00;70.38;100200.44;4998139;28;20211;-76
2023/08/19 10:01:25;;;;;;;5.10;4.70;;;;;;;34.10;70.25;100202.94;4983233;28;20205;-76
2023/08/19 10:03:51;;;;;;;7.28;4.63;;;;;;;34.14;69.73;100196.19;4981186;28;20609;-77
2023/08/19 10:06:24;;;;;;;4.68;4.28;;;;;;;34.24;69.46;100201.38;4986193;28;20185;-77
2023/08/19 10:08:54;;;;;;;4.50;4.15;;;;;;;34.32;70.21;100207.56;4982196;28;20192;-76
2023/08/19 10:11:22;;;;;;;4.78;4.35;;;;;;;34.43;71.33;100214.47;4985819;28;20185;-77
2023/08/19 10:13:49;;;;;;;5.03;4.38;;;;;;;34.43;70.41;100219.84;4983276;28;20240;-76
2023/08/19 10:16:15;;;;;;;4.90;4.22;;;;;;;34.56;70.29;100224.69;4979678;28;20823;-77
2023/08/19 10:18:44;;;;;;;4.70;4.30;;;;;;;34.59;70.53;100224.31;4982314;28;20212;-76
2023/08/19 10:21:13;;;;;;;6.72;4.72;;;;;;;34.61;70.81;100221.47;4982094;28;20674;-77
2023/08/19 10:23:42;;;;;;;4.88;4.47;;;;;;;34.61;71.60;100233.03;4979420;28;20291;-77
2023/08/19 10:26:07;;;;;;;4.75;4.45;;;;;;;34.57;72.10;100226.34;4978828;28;20210;-76
2023/08/19 10:28:33;;;;;;;4.72;4.20;;;;;;;34.52;71.75;100226.03;4980251;28;20196;-76
2023/08/19 10:31:15;;;;;;;5.95;4.70;;;;;;;34.49;71.65;100223.69;4980730;28;20257;-77
2023/08/19 10:33:46;;;;;;;5.22;4.25;;;;;;;34.43;71.05;100229.72;4979418;28;20568;-76
2023/08/19 10:36:20;;;;;;;6.25;4.45;;;;;;;34.39;70.50;100239.13;4976643;28;20217;-76
2023/08/19 10:38:47;;;;;;;5.18;4.68;;;;;;;34.33;71.05;100236.13;4980961;28;20200;-76
2023/08/19 10:41:36;;;;;;;4.22;3.83;;;;;;;34.33;71.25;100235.28;4981273;28;20932;-76
2023/08/19 10:44:04;;;;;;;5.10;4.60;;;;;;;34.33;71.73;100237.97;4986066;28;20209;-77
2023/08/19 10:46:32;;;;;;;5.03;4.40;;;;;;;34.25;72.88;100236.16;4982023;28;20724;-75
2023/08/19 10:48:58;;;;;;;5.88;5.38;;;;;;;34.07;74.14;100240.84;4997990;28;20247;-76
2023/08/19 10:51:50;;;;;;;5.57;4.63;;;;;;;34.16;75.22;100243.38;4982068;28;20197;-76
2023/08/19 10:54:24;;;;;;;5.93;4.68;;;;;;;34.26;76.18;100237.78;4985801;28;20217;-75
2023/08/19 10:57:05;;;;;;;5.53;5.05;;;;;;;34.26;75.56;100250.41;4989143;28;20213;-75
2023/08/19 10:59:33;;;;;;;5.60;4.70;;;;;;;34.25;75.74;100248.72;4983881;28;20306;-75
2023/08/19 11:01:59;;;;;;;5.38;4.82;;;;;;;34.22;76.15;100247.22;4982080;28;20946;-75
2023/08/19 11:04:25;;;;;;;5.07;4.55;;;;;;;34.22;76.26;100243.69;4981313;28;20867;-77
2023/08/19 11:06:54;;;;;;;5.03;4.32;;;;;;;34.22;75.65;100255.28;4979388;28;20649;-76
2023/08/19 11:09:22;;;;;;;4.63;4.22;;;;;;;34.21;75.35;100253.59;4983088;28;20209;-75
2023/08/19 11:11:48;;;;;;;5.25;4.15;;;;;;;34.13;75.32;100257.13;4985948;28;20185;-76
2023/08/19 11:14:20;;;;;;;6.43;4.50;;;;;;;34.05;76.06;100251.75;4981628;28;20263;-76
2023/08/19 11:16:58;;;;;;;5.38;4.97;;;;;;;34.00;76.19;100252.25;4985088;28;20466;-75
2023/08/19 11:19:24;;;;;;;5.82;4.82;;;;;;;34.02;76.47;100249.44;4984054;28;20193;-76